Time;durP1;ratioP1;P1;durP2;ratioP2;P2;SDS_P1;SDS_P2;PMS_P1;PMS_P2;Temp;Humidity;BMP_temperature;BMP_pressure;BME280_temperature;BME280_humidity;BME280_pressure;Samples;Min_cycle;Max_cycle;Signal;HPM_P1;HPM_P2
2022/02/04 00:03:19;;;;;;;27.60;14.15;;;;;;;;;;6156538;23;20009;-65
2022/02/04 00:20:35;;;;;;;24.02;13.05;;;;;;;;;;6144056;23;20076;-73
2022/02/04 00:28:09;;;;;;;21.38;11.02;;;;;;;;;;6155983;23;20009;-73
2022/02/04 00:30:40;;;;;;;20.48;10.80;;;;;;;;;;6130058;23;20006;-73
2022/02/04 00:33:08;;;;;;;21.00;12.02;;;;;;;;;;6156120;23;20016;-73
2022/02/04 00:40:41;;;;;;;19.65;9.57;;;;;;;;;;6155876;23;20010;-73
2022/02/04 00:43:11;;;;;;;15.47;9.53;;;;;;;;;;6155794;23;20009;-74
2022/02/04 00:48:52;;;;;;;18.08;10.55;;;;;;;;;;6157194;23;20397;-74
2022/02/04 00:51:11;;;;;;;16.43;8.93;;;;;;;;;;6141876;23;20461;-73
2022/02/04 00:53:49;;;;;;;15.65;9.25;;;;;;;;;;6132085;23;20013;-73
2022/02/04 00:56:23;;;;;;;14.32;8.65;;;;;;;;;;6157431;23;20032;-66
2022/02/04 01:26:15;;;;;;;13.48;8.02;;;;;;;;;;6157963;23;20429;-73
2022/02/04 01:28:43;;;;;;;15.45;8.98;;;;;;;;;;6131190;23;20003;-73
2022/02/04 01:31:19;;;;;;;12.32;8.77;;;;;;;;;;6157641;23;20009;-73
2022/02/04 01:33:46;;;;;;;15.05;8.40;;;;;;;;;;6157213;23;20448;-73
2022/02/04 01:36:13;;;;;;;17.50;8.90;;;;;;;;;;6157351;23;20002;-73
2022/02/04 01:38:39;;;;;;;14.93;8.48;;;;;;;;;;6157103;23;20010;-66
2022/02/04 01:41:05;;;;;;;15.68;9.20;;;;;;;;;;6131259;23;20454;-66
2022/02/04 01:43:31;;;;;;;15.35;8.77;;;;;;;;;;6131233;23;20105;-66
2022/02/04 01:45:58;;;;;;;15.07;9.85;;;;;;;;;;6157626;23;19997;-66
2022/02/04 01:48:23;;;;;;;16.58;9.82;;;;;;;;;;6157127;23;20044;-66
2022/02/04 01:50:50;;;;;;;17.92;9.70;;;;;;;;;;6157238;23;19993;-66
2022/02/04 01:53:20;;;;;;;15.38;9.20;;;;;;;;;;6156919;23;20013;-66
2022/02/04 01:55:46;;;;;;;17.27;10.70;;;;;;;;;;6130824;23;20137;-73
2022/02/04 01:58:12;;;;;;;18.13;10.85;;;;;;;;;;6157080;23;20005;-66
2022/02/04 02:00:38;;;;;;;18.05;10.27;;;;;;;;;;6157353;23;20056;-66
2022/02/04 02:03:04;;;;;;;20.10;10.75;;;;;;;;;;6156962;23;20434;-65
2022/02/04 02:05:30;;;;;;;16.42;11.13;;;;;;;;;;6156876;23;20013;-65
2022/02/04 02:08:03;;;;;;;18.80;10.75;;;;;;;;;;6157153;23;20016;-66
2022/02/04 02:10:30;;;;;;;17.88;10.75;;;;;;;;;;6157034;23;20017;-66
2022/02/04 02:35:03;;;;;;;19.65;11.77;;;;;;;;;;6157015;23;20033;-67
2022/02/04 02:42:32;;;;;;;19.20;11.65;;;;;;;;;;6156987;23;20013;-67
2022/02/04 02:56:19;;;;;;;21.08;12.93;;;;;;;;;;6156875;23;20009;-66
2022/02/04 02:58:45;;;;;;;20.67;12.77;;;;;;;;;;6156241;23;20013;-74
2022/02/04 03:01:11;;;;;;;25.35;13.52;;;;;;;;;;6156470;23;20013;-74
2022/02/04 03:03:36;;;;;;;27.38;14.05;;;;;;;;;;6155736;23;20355;-73
2022/02/04 03:06:02;;;;;;;25.15;13.40;;;;;;;;;;6157010;23;20029;-74
2022/02/04 03:08:28;;;;;;;26.70;15.35;;;;;;;;;;6156618;23;20091;-74
2022/02/04 03:10:54;;;;;;;31.52;16.77;;;;;;;;;;6156008;23;20005;-74
2022/02/04 03:13:20;;;;;;;27.55;17.75;;;;;;;;;;6156696;23;19997;-66
2022/02/04 03:15:48;;;;;;;33.33;17.30;;;;;;;;;;6156496;23;20092;-67
2022/02/04 03:18:22;;;;;;;28.88;16.65;;;;;;;;;;6156191;23;20006;-67
2022/02/04 03:20:51;;;;;;;27.85;17.25;;;;;;;;;;6156309;23;20021;-67
2022/02/04 03:23:17;;;;;;;26.17;16.20;;;;;;;;;;6156640;23;20080;-67
2022/02/04 03:25:48;;;;;;;24.80;16.60;;;;;;;;;;6156505;23;20009;-67
2022/02/04 03:28:20;;;;;;;26.83;16.52;;;;;;;;;;6156479;23;20012;-73
2022/02/04 03:30:47;;;;;;;34.88;21.17;;;;;;;;;;6155860;23;20005;-67
2022/02/04 03:33:12;;;;;;;32.15;19.98;;;;;;;;;;6156235;23;20009;-67
2022/02/04 03:35:38;;;;;;;27.30;15.57;;;;;;;;;;6156135;23;20060;-67
2022/02/04 03:38:03;;;;;;;26.02;15.65;;;;;;;;;;6156142;23;20059;-67
2022/02/04 03:40:29;;;;;;;27.20;15.40;;;;;;;;;;6156077;23;20068;-67
2022/02/04 03:42:55;;;;;;;39.60;18.60;;;;;;;;;;6156127;23;20057;-67
2022/02/04 03:45:21;;;;;;;42.80;19.23;;;;;;;;;;6156131;23;20005;-67
2022/02/04 03:47:48;;;;;;;34.28;18.13;;;;;;;;;;6156005;23;19993;-67
2022/02/04 03:50:14;;;;;;;86.63;30.70;;;;;;;;;;6156098;23;20012;-67
2022/02/04 03:52:40;;;;;;;52.17;21.42;;;;;;;;;;6130005;23;20068;-65
2022/02/04 03:55:06;;;;;;;40.40;19.85;;;;;;;;;;6130055;23;20009;-65
2022/02/04 03:57:33;;;;;;;36.88;17.52;;;;;;;;;;6155859;23;20116;-64
2022/02/04 03:59:58;;;;;;;37.28;16.05;;;;;;;;;;6155973;23;20021;-65
2022/02/04 04:02:24;;;;;;;38.00;17.73;;;;;;;;;;6155703;23;19997;-75
2022/02/04 04:04:49;;;;;;;35.33;18.00;;;;;;;;;;6156039;23;20092;-74
2022/02/04 04:07:15;;;;;;;32.42;16.73;;;;;;;;;;6156006;23;20012;-65
2022/02/04 04:09:47;;;;;;;33.25;17.38;;;;;;;;;;6156102;23;20292;-65
2022/02/04 04:12:12;;;;;;;33.03;17.30;;;;;;;;;;6156255;23;20001;-66
2022/02/04 04:14:38;;;;;;;37.13;18.38;;;;;;;;;;6155943;23;20001;-65
2022/02/04 04:17:03;;;;;;;38.75;17.60;;;;;;;;;;6156087;23;20078;-64
2022/02/04 04:19:29;;;;;;;32.97;17.58;;;;;;;;;;6156244;23;19997;-65
2022/02/04 04:21:54;;;;;;;37.85;18.60;;;;;;;;;;6156402;23;20084;-65
2022/02/04 04:24:20;;;;;;;34.65;17.88;;;;;;;;;;6158178;23;19998;-66
2022/02/04 04:26:45;;;;;;;35.42;18.13;;;;;;;;;;6157967;23;20315;-66
2022/02/04 04:29:11;;;;;;;31.58;17.60;;;;;;;;;;6158115;23;20081;-66
2022/02/04 04:31:37;;;;;;;35.13;18.05;;;;;;;;;;6157847;23;20012;-74
2022/02/04 04:34:03;;;;;;;33.38;17.23;;;;;;;;;;6157996;23;20473;-73
2022/02/04 04:36:30;;;;;;;39.22;18.13;;;;;;;;;;6157596;23;20007;-73
2022/02/04 04:39:09;;;;;;;40.53;18.55;;;;;;;;;;6157893;23;20001;-73
2022/02/04 05:30:13;;;;;;;23.30;14.35;;;;;;;;;;6157355;23;20004;-67
2022/02/04 05:32:39;;;;;;;24.33;14.85;;;;;;;;;;6157075;23;20088;-68
2022/02/04 05:35:07;;;;;;;22.30;14.85;;;;;;;;;;6157283;23;20026;-68
2022/02/04 05:37:35;;;;;;;19.90;13.30;;;;;;;;;;6130926;23;20036;-68
2022/02/04 05:40:07;;;;;;;29.60;18.33;;;;;;;;;;6156266;23;20084;-68
2022/02/04 05:42:36;;;;;;;26.58;16.42;;;;;;;;;;6157109;23;20032;-68
2022/02/04 05:45:06;;;;;;;47.40;28.35;;;;;;;;;;6157242;23;20052;-68
2022/02/04 05:47:33;;;;;;;33.95;20.08;;;;;;;;;;6156808;23;20002;-68
2022/02/04 05:50:12;;;;;;;24.77;15.82;;;;;;;;;;6156616;23;19998;-67
2022/02/04 05:55:48;;;;;;;21.02;14.15;;;;;;;;;;6156967;23;20101;-67
2022/02/04 06:00:48;;;;;;;38.58;21.17;;;;;;;;;;6156410;23;20330;-68
2022/02/04 06:06:16;;;;;;;25.85;15.75;;;;;;;;;;6156714;23;20016;-67
2022/02/04 06:14:04;;;;;;;30.58;16.23;;;;;;;;;;6156546;23;20085;-68
2022/02/04 06:24:53;;;;;;;42.30;22.60;;;;;;;;;;6009447;23;20047;-68
2022/02/04 06:27:19;;;;;;;89.38;43.78;;;;;;;;;;6106538;23;20081;-68
2022/02/04 06:29:45;;;;;;;61.17;30.17;;;;;;;;;;6156309;23;20012;-68
2022/02/04 06:32:10;;;;;;;41.92;24.27;;;;;;;;;;6156569;23;20009;-68
2022/02/04 06:34:36;;;;;;;41.17;23.05;;;;;;;;;;6156339;23;20008;-69
2022/02/04 06:37:02;;;;;;;40.47;21.00;;;;;;;;;;6156289;23;19998;-68
2022/02/04 06:39:28;;;;;;;38.78;21.65;;;;;;;;;;6156312;23;20001;-68
2022/02/04 06:41:54;;;;;;;43.63;23.73;;;;;;;;;;6156196;23;19993;-68
2022/02/04 06:44:19;;;;;;;50.75;27.58;;;;;;;;;;6155722;23;20009;-68
2022/02/04 06:46:45;;;;;;;61.08;32.60;;;;;;;;;;6156021;23;19993;-68
2022/02/04 06:49:10;;;;;;;61.47;30.48;;;;;;;;;;6156225;23;20005;-68
2022/02/04 06:51:35;;;;;;;59.95;30.40;;;;;;;;;;6156205;23;20072;-68
2022/02/04 06:54:01;;;;;;;48.45;26.88;;;;;;;;;;6129908;23;20307;-68
2022/02/04 06:56:26;;;;;;;94.13;43.92;;;;;;;;;;6156116;23;19997;-68
2022/02/04 06:58:52;;;;;;;66.68;40.28;;;;;;;;;;6156115;23;20338;-68
2022/02/04 07:01:17;;;;;;;44.28;26.65;;;;;;;;;;6156025;23;20082;-68
2022/02/04 07:03:43;;;;;;;53.85;35.42;;;;;;;;;;6155535;23;20152;-69
2022/02/04 07:06:13;;;;;;;34.58;18.98;;;;;;;;;;6156341;23;20001;-68
2022/02/04 07:14:06;;;;;;;31.17;18.77;;;;;;;;;;6155981;23;20032;-68
2022/02/04 07:16:41;;;;;;;30.80;17.95;;;;;;;;;;6156374;23;20006;-68
2022/02/04 07:21:52;;;;;;;28.65;16.80;;;;;;;;;;6156520;23;20013;-68
2022/02/04 07:24:18;;;;;;;32.13;22.02;;;;;;;;;;6156168;23;20001;-68
2022/02/04 07:26:44;;;;;;;38.95;27.48;;;;;;;;;;6155759;23;20407;-68
2022/02/04 07:29:09;;;;;;;52.72;39.20;;;;;;;;;;6155964;23;20044;-68
2022/02/04 07:31:39;;;;;;;32.40;21.65;;;;;;;;;;6156075;23;20006;-68
2022/02/04 07:34:34;;;;;;;26.80;15.73;;;;;;;;;;6156322;23;20100;-68
2022/02/04 07:42:29;;;;;;;63.67;34.58;;;;;;;;;;6155907;23;20013;-68
2022/02/04 07:44:55;;;;;;;60.55;36.65;;;;;;;;;;6129448;23;19997;-68
2022/02/04 07:47:21;;;;;;;56.17;36.40;;;;;;;;;;6155784;23;20012;-68
2022/02/04 07:49:46;;;;;;;64.78;38.28;;;;;;;;;;6155801;23;20017;-68
2022/02/04 07:52:12;;;;;;;61.83;38.85;;;;;;;;;;6129769;23;20002;-68
2022/02/04 07:54:38;;;;;;;59.58;36.25;;;;;;;;;;6155719;23;20001;-68
2022/02/04 07:57:03;;;;;;;58.83;36.08;;;;;;;;;;6155629;23;20013;-68
2022/02/04 07:59:29;;;;;;;55.35;34.08;;;;;;;;;;6155751;23;20307;-68
2022/02/04 08:01:54;;;;;;;46.47;30.38;;;;;;;;;;6155835;23;20009;-68
2022/02/04 08:04:27;;;;;;;51.55;31.40;;;;;;;;;;6154853;23;20444;-68
2022/02/04 08:06:59;;;;;;;63.88;33.70;;;;;;;;;;6155735;23;20328;-69
2022/02/04 08:12:43;;;;;;;44.95;26.27;;;;;;;;;;6087543;23;20057;-68
2022/02/04 08:18:58;;;;;;;34.95;21.40;;;;;;;;;;6155958;23;20013;-68
2022/02/04 08:26:16;;;;;;;27.15;17.50;;;;;;;;;;6155563;23;20017;-68
2022/02/04 08:29:08;;;;;;;24.80;15.52;;;;;;;;;;6155747;23;20048;-68
2022/02/04 08:48:52;;;;;;;18.85;11.02;;;;;;;;;;6155576;23;20078;-68
2022/02/04 08:51:25;;;;;;;16.23;10.57;;;;;;;;;;6129224;23;20002;-68
2022/02/04 08:56:20;;;;;;;33.88;20.33;;;;;;;;;;6155347;23;20048;-68
2022/02/04 08:59:00;;;;;;;32.55;19.50;;;;;;;;;;6155292;23;20016;-69
2022/02/04 09:01:34;;;;;;;35.67;20.15;;;;;;;;;;6155620;23;20037;-68
2022/02/04 09:04:09;;;;;;;42.92;24.40;;;;;;;;;;6154945;23;20037;-69
2022/02/04 09:06:41;;;;;;;25.80;16.80;;;;;;;;;;6155594;23;20029;-69
2022/02/04 09:09:14;;;;;;;27.80;17.73;;;;;;;;;;6156550;23;20028;-68
2022/02/04 09:11:43;;;;;;;29.73;19.50;;;;;;;;;;6157111;23;20430;-68
2022/02/04 09:17:12;;;;;;;24.75;14.30;;;;;;;;;;6157407;23;20010;-68
2022/02/04 09:19:47;;;;;;;24.45;15.18;;;;;;;;;;6157376;23;20013;-68
2022/02/04 09:22:26;;;;;;;24.20;15.20;;;;;;;;;;6157230;23;20009;-68
2022/02/04 09:24:51;;;;;;;20.92;13.40;;;;;;;;;;6157230;23;20012;-68
2022/02/04 09:27:17;;;;;;;23.70;13.55;;;;;;;;;;6156901;23;19997;-69
2022/02/04 09:29:42;;;;;;;30.95;16.20;;;;;;;;;;6156985;23;20405;-68
2022/02/04 09:32:08;;;;;;;38.92;19.13;;;;;;;;;;6157012;23;20013;-68
2022/02/04 09:34:33;;;;;;;56.17;23.52;;;;;;;;;;6156937;23;20016;-68
2022/02/04 09:36:58;;;;;;;38.22;20.30;;;;;;;;;;6156836;23;19997;-68
2022/02/04 09:39:25;;;;;;;31.85;17.77;;;;;;;;;;6156815;23;20005;-68
2022/02/04 09:41:50;;;;;;;31.15;18.35;;;;;;;;;;6156835;23;20012;-69
2022/02/04 09:44:16;;;;;;;30.17;17.05;;;;;;;;;;6156653;23;20326;-69
2022/02/04 09:46:41;;;;;;;27.55;16.35;;;;;;;;;;6156772;23;20020;-69
2022/02/04 09:49:16;;;;;;;30.27;16.58;;;;;;;;;;6156736;23;20028;-69
2022/02/04 10:08:27;;;;;;;30.27;16.63;;;;;;;;;;6156604;23;20456;-68
2022/02/04 10:12:05;;;;;;;31.90;18.73;;;;;;;;;;6130493;23;20049;-68
2022/02/04 10:19:53;;;;;;;21.40;13.02;;;;;;;;;;6155975;23;20041;-68
2022/02/04 10:22:36;;;;;;;22.30;12.93;;;;;;;;;;6156315;23;20013;-68
2022/02/04 10:25:08;;;;;;;21.83;13.10;;;;;;;;;;6156739;23;20338;-68
2022/02/04 10:27:34;;;;;;;21.75;12.98;;;;;;;;;;6156417;23;20028;-65
2022/02/04 10:30:01;;;;;;;18.77;12.18;;;;;;;;;;6156401;23;20000;-69
2022/02/04 10:32:30;;;;;;;26.20;12.95;;;;;;;;;;6156262;23;20032;-69
2022/02/04 10:35:01;;;;;;;23.13;11.68;;;;;;;;;;6156280;23;19997;-69
2022/02/04 10:37:29;;;;;;;16.25;8.25;;;;;;;;;;6156184;23;20005;-65
2022/02/04 10:40:09;;;;;;;14.15;8.32;;;;;;;;;;6156463;23;19998;-61
2022/02/04 11:03:22;;;;;;;13.10;7.85;;;;;;;;;;6155705;23;20049;-71
2022/02/04 11:08:43;;;;;;;15.80;8.55;;;;;;;;;;6155969;23;20040;-70
2022/02/04 11:11:33;;;;;;;18.02;8.90;;;;;;;;;;6156177;23;20001;-71
2022/02/04 11:36:06;;;;;;;12.23;7.88;;;;;;;;;;6154266;23;20334;-74
2022/02/04 11:55:21;;;;;;;37.35;19.38;;;;;;;;;;6155665;23;20020;-74
2022/02/04 11:57:56;;;;;;;39.75;20.73;;;;;;;;;;6155704;23;20457;-74
2022/02/04 12:00:42;;;;;;;42.05;22.90;;;;;;;;;;6155599;23;20028;-75
2022/02/04 12:03:25;;;;;;;42.83;22.08;;;;;;;;;;6155233;23;20010;-74
2022/02/04 12:05:51;;;;;;;40.60;22.23;;;;;;;;;;6129664;23;20089;-74
2022/02/04 12:08:18;;;;;;;60.33;30.73;;;;;;;;;;6129572;23;20013;-75
2022/02/04 12:10:45;;;;;;;51.92;30.27;;;;;;;;;;6155616;23;20438;-74
2022/02/04 12:13:11;;;;;;;47.17;23.85;;;;;;;;;;6155740;23;20009;-75
2022/02/04 12:15:37;;;;;;;31.63;16.65;;;;;;;;;;6155728;23;20455;-75
2022/02/04 12:18:06;;;;;;;20.58;11.13;;;;;;;;;;6155429;23;20393;-75
2022/02/04 12:20:44;;;;;;;17.00;9.13;;;;;;;;;;6155654;23;20006;-75
2022/02/04 12:23:35;;;;;;;13.98;8.55;;;;;;;;;;6155323;23;20065;-75
2022/02/04 12:26:01;;;;;;;16.52;8.75;;;;;;;;;;6110330;23;20342;-75
2022/02/04 12:28:36;;;;;;;24.85;13.70;;;;;;;;;;6155594;23;19994;-74
2022/02/04 12:31:23;;;;;;;26.95;13.80;;;;;;;;;;6129587;23;20001;-75
2022/02/04 12:33:50;;;;;;;21.90;11.82;;;;;;;;;;6155582;23;20013;-75
2022/02/04 12:36:17;;;;;;;22.45;11.52;;;;;;;;;;6155624;23;20002;-75
2022/02/04 12:38:43;;;;;;;22.88;12.13;;;;;;;;;;6129569;23;20017;-75
2022/02/04 12:41:09;;;;;;;22.70;10.18;;;;;;;;;;6155573;23;20001;-75
2022/02/04 12:43:37;;;;;;;20.48;10.80;;;;;;;;;;6156045;23;20009;-75
2022/02/04 12:46:04;;;;;;;20.00;9.15;;;;;;;;;;6157402;23;19993;-75
2022/02/04 12:48:29;;;;;;;19.30;9.68;;;;;;;;;;6157345;23;20002;-75
2022/02/04 12:50:55;;;;;;;16.33;9.18;;;;;;;;;;6156437;23;20493;-75
2022/02/04 12:53:28;;;;;;;15.60;8.68;;;;;;;;;;6157299;23;20005;-75
2022/02/04 12:57:15;;;;;;;17.10;9.00;;;;;;;;;;6157249;23;20016;-75
2022/02/04 13:12:05;;;;;;;17.52;9.35;;;;;;;;;;6157228;23;20009;-74
2022/02/04 13:14:30;;;;;;;18.70;10.43;;;;;;;;;;6157273;23;20067;-75
2022/02/04 13:16:56;;;;;;;22.13;10.20;;;;;;;;;;6157167;23;20335;-74
2022/02/04 13:19:22;;;;;;;28.67;12.23;;;;;;;;;;6157265;23;19997;-74
2022/02/04 13:21:48;;;;;;;18.08;8.93;;;;;;;;;;6157157;23;20006;-74
2022/02/04 13:24:13;;;;;;;24.48;9.98;;;;;;;;;;6156848;23;20029;-75
2022/02/04 13:26:39;;;;;;;25.98;10.70;;;;;;;;;;6156928;23;20426;-76
2022/02/04 13:29:05;;;;;;;26.17;11.05;;;;;;;;;;6156991;23;20005;-75
2022/02/04 13:31:35;;;;;;;24.45;10.10;;;;;;;;;;6130397;23;20385;-75
2022/02/04 13:34:07;;;;;;;20.13;11.35;;;;;;;;;;6130966;23;20009;-75
2022/02/04 13:36:45;;;;;;;19.00;10.95;;;;;;;;;;6156932;23;20461;-74
2022/02/04 13:57:50;;;;;;;37.05;17.05;;;;;;;;;;6157020;23;20005;-75
2022/02/04 14:00:26;;;;;;;39.53;18.00;;;;;;;;;;6156763;23;20534;-73
2022/02/04 14:03:08;;;;;;;33.55;14.40;;;;;;;;;;6156633;23;20013;-74
2022/02/04 14:05:41;;;;;;;42.47;18.33;;;;;;;;;;6156441;23;20024;-74
2022/02/04 14:08:08;;;;;;;39.80;18.25;;;;;;;;;;6156514;23;20001;-75
2022/02/04 14:10:44;;;;;;;44.38;19.70;;;;;;;;;;6156629;23;19997;-74
2022/02/04 14:13:11;;;;;;;28.55;14.48;;;;;;;;;;6156543;23;20016;-74
2022/02/04 14:15:39;;;;;;;17.17;8.57;;;;;;;;;;6156487;23;20367;-75
2022/02/04 14:18:11;;;;;;;18.52;9.70;;;;;;;;;;6156729;23;20041;-74
2022/02/04 14:20:38;;;;;;;17.27;9.68;;;;;;;;;;6157161;23;20092;-74
2022/02/04 14:23:06;;;;;;;13.25;8.07;;;;;;;;;;6156642;23;20002;-74
2022/02/04 14:25:43;;;;;;;16.60;10.23;;;;;;;;;;6130985;23;20005;-74
2022/02/04 14:28:11;;;;;;;17.70;10.98;;;;;;;;;;6157061;23;20005;-74
2022/02/04 14:30:38;;;;;;;16.38;10.50;;;;;;;;;;6157025;23;19997;-75
2022/02/04 14:33:48;;;;;;;15.50;9.40;;;;;;;;;;6106720;23;20383;-75
2022/02/04 14:36:06;;;;;;;15.30;10.90;;;;;;;;;;6155162;23;20021;-73
2022/02/04 14:52:22;;;;;;;16.85;10.25;;;;;;;;;;6156903;23;20056;-75
2022/02/04 15:02:45;;;;;;;21.98;12.68;;;;;;;;;;6154797;23;20036;-75
2022/02/04 15:05:15;;;;;;;18.85;10.63;;;;;;;;;;6154354;23;20478;-76
2022/02/04 15:07:44;;;;;;;16.48;10.20;;;;;;;;;;6154644;23;20001;-75
2022/02/04 15:10:25;;;;;;;16.25;9.98;;;;;;;;;;6128874;23;20080;-76
2022/02/04 15:12:53;;;;;;;17.13;10.10;;;;;;;;;;6128495;23;20006;-75
2022/02/04 15:15:19;;;;;;;20.70;11.63;;;;;;;;;;6128649;23;20005;-75
2022/02/04 15:17:47;;;;;;;22.63;13.48;;;;;;;;;;6127961;23;20024;-75
2022/02/04 15:20:12;;;;;;;33.15;16.73;;;;;;;;;;6104047;23;20009;-75
2022/02/04 15:22:38;;;;;;;38.05;18.80;;;;;;;;;;6155027;23;20110;-76
2022/02/04 15:25:11;;;;;;;34.80;17.63;;;;;;;;;;6155021;23;20080;-75
2022/02/04 15:27:41;;;;;;;31.45;16.65;;;;;;;;;;6154376;23;20765;-75
2022/02/04 15:30:10;;;;;;;31.35;17.15;;;;;;;;;;6128235;23;20001;-75
2022/02/04 15:32:35;;;;;;;32.95;18.08;;;;;;;;;;6154090;23;20038;-76
2022/02/04 15:35:04;;;;;;;30.88;16.90;;;;;;;;;;6154117;23;20431;-75
2022/02/04 15:37:31;;;;;;;31.80;17.50;;;;;;;;;;6103809;23;20368;-76
2022/02/04 15:39:57;;;;;;;30.17;17.65;;;;;;;;;;6154614;23;20304;-75
2022/02/04 15:42:24;;;;;;;27.52;15.25;;;;;;;;;;6154841;23;20008;-76
2022/02/04 15:45:12;;;;;;;24.67;13.75;;;;;;;;;;6154110;23;20508;-76
2022/02/04 15:47:56;;;;;;;19.02;11.95;;;;;;;;;;6154358;23;20002;-75
2022/02/04 15:50:30;;;;;;;22.00;11.45;;;;;;;;;;6128864;23;20013;-76
2022/02/04 15:53:17;;;;;;;19.55;11.43;;;;;;;;;;6154815;23;20013;-75
2022/02/04 16:05:45;;;;;;;19.60;10.50;;;;;;;;;;6155047;23;20108;-78
2022/02/04 16:08:23;;;;;;;19.98;11.55;;;;;;;;;;6155186;23;20011;-79
2022/02/04 16:10:58;;;;;;;21.20;12.23;;;;;;;;;;6155290;23;20009;-79
2022/02/04 16:13:47;;;;;;;32.97;17.27;;;;;;;;;;6154709;23;20016;-79
2022/02/04 16:16:28;;;;;;;58.40;33.95;;;;;;;;;;6155041;23;20013;-78
2022/02/04 16:19:05;;;;;;;56.00;32.55;;;;;;;;;;6157396;23;20033;-78
2022/02/04 16:21:44;;;;;;;44.95;26.98;;;;;;;;;;6157318;23;20020;-78
2022/02/04 16:29:26;;;;;;;31.23;16.95;;;;;;;;;;6156395;23;20002;-78
2022/02/04 16:31:55;;;;;;;27.50;16.42;;;;;;;;;;6157123;23;20024;-78
2022/02/04 16:34:35;;;;;;;45.75;24.00;;;;;;;;;;6157034;23;19998;-78
2022/02/04 16:37:04;;;;;;;340.38;159.82;;;;;;;;;;6157110;23;20009;-78
2022/02/04 16:39:32;;;;;;;327.90;151.88;;;;;;;;;;6156684;23;20048;-78
2022/02/04 16:42:10;;;;;;;307.77;133.98;;;;;;;;;;6156957;23;20005;-78
2022/02/04 16:44:36;;;;;;;272.17;123.90;;;;;;;;;;6130395;23;20686;-80
2022/02/04 16:47:09;;;;;;;196.93;91.88;;;;;;;;;;6156178;23;19997;-79
2022/02/04 16:49:35;;;;;;;195.23;90.80;;;;;;;;;;6130367;23;20002;-79
2022/02/04 16:52:02;;;;;;;224.25;106.90;;;;;;;;;;6130598;23;20006;-78
2022/02/04 16:54:28;;;;;;;189.18;95.05;;;;;;;;;;6130218;23;20009;-78
2022/02/04 16:57:12;;;;;;;162.40;81.80;;;;;;;;;;6156049;23;20445;-78
2022/02/04 16:59:42;;;;;;;103.03;51.35;;;;;;;;;;6156528;23;20005;-77
2022/02/04 17:02:16;;;;;;;47.13;26.50;;;;;;;;;;6130500;23;20435;-78
2022/02/04 17:04:42;;;;;;;95.82;48.90;;;;;;;;;;6156081;23;20018;-78
2022/02/04 17:07:21;;;;;;;85.95;47.33;;;;;;;;;;6156933;23;20005;-77
2022/02/04 17:09:55;;;;;;;68.90;39.95;;;;;;;;;;6156648;23;20026;-77
2022/02/04 17:12:29;;;;;;;63.33;35.03;;;;;;;;;;6156538;23;20013;-77
2022/02/04 17:14:56;;;;;;;52.45;30.73;;;;;;;;;;6156927;23;20009;-77
2022/02/04 17:17:25;;;;;;;46.13;28.20;;;;;;;;;;6156652;23;20029;-78
2022/02/04 17:20:05;;;;;;;67.57;38.67;;;;;;;;;;6155377;23;20020;-77
2022/02/04 17:22:36;;;;;;;115.55;60.70;;;;;;;;;;6154217;23;20693;-77
2022/02/04 17:27:35;;;;;;;123.32;64.43;;;;;;;;;;6129188;23;19940;-78
2022/02/04 17:30:01;;;;;;;146.90;80.07;;;;;;;;;;6129484;23;20080;-78
2022/02/04 17:32:27;;;;;;;126.90;69.55;;;;;;;;;;6129873;23;20016;-78
2022/02/04 17:34:53;;;;;;;92.35;55.60;;;;;;;;;;6155647;23;20673;-73
2022/02/04 17:37:18;;;;;;;50.10;31.88;;;;;;;;;;6128154;23;20016;-73
2022/02/04 17:39:44;;;;;;;58.15;32.65;;;;;;;;;;6153989;23;20008;-74
2022/02/04 17:42:10;;;;;;;69.65;41.55;;;;;;;;;;6127631;23;20452;-74
2022/02/04 17:44:36;;;;;;;79.50;47.08;;;;;;;;;;6153932;23;20012;-74
2022/02/04 17:47:02;;;;;;;82.95;50.80;;;;;;;;;;6153773;23;20430;-74
2022/02/04 17:52:31;;;;;;;59.30;35.63;;;;;;;;;;6122088;23;20020;-73
2022/02/04 17:55:05;;;;;;;67.70;38.97;;;;;;;;;;6153964;23;20014;-73
2022/02/04 17:57:38;;;;;;;72.05;42.30;;;;;;;;;;6153872;23;20009;-73
2022/02/04 18:03:14;;;;;;;55.92;30.20;;;;;;;;;;6153889;23;20014;-73
2022/02/04 18:08:21;;;;;;;35.50;21.63;;;;;;;;;;6153444;23;20088;-73
2022/02/04 18:10:48;;;;;;;61.72;29.98;;;;;;;;;;6126687;23;20056;-72
2022/02/04 18:13:17;;;;;;;91.25;41.88;;;;;;;;;;6153657;23;20013;-72
2022/02/04 18:15:45;;;;;;;133.35;60.15;;;;;;;;;;6153114;23;20012;-73
2022/02/04 18:18:12;;;;;;;85.97;40.53;;;;;;;;;;6153970;23;20342;-72
2022/02/04 18:20:38;;;;;;;53.15;27.92;;;;;;;;;;6153766;23;20027;-72
2022/02/04 18:23:03;;;;;;;33.45;20.88;;;;;;;;;;6152840;23;20509;-73
2022/02/04 18:25:30;;;;;;;30.48;19.17;;;;;;;;;;6153433;23;20132;-73
2022/02/04 18:27:56;;;;;;;32.42;19.63;;;;;;;;;;6150320;23;20012;-72
2022/02/04 18:30:23;;;;;;;36.22;21.55;;;;;;;;;;6102815;23;20346;-73
2022/02/04 18:32:49;;;;;;;34.08;20.63;;;;;;;;;;6153835;23;20017;-72
2022/02/04 18:35:15;;;;;;;29.40;16.52;;;;;;;;;;6153607;23;20001;-72
2022/02/04 18:37:46;;;;;;;33.30;18.40;;;;;;;;;;6153325;23;20010;-72
2022/02/04 18:45:35;;;;;;;38.88;23.60;;;;;;;;;;6106905;23;20068;-73
2022/02/04 18:48:12;;;;;;;43.90;26.40;;;;;;;;;;6126985;23;20005;-73
2022/02/04 18:50:48;;;;;;;43.28;24.83;;;;;;;;;;6126465;23;20027;-71
2022/02/04 18:53:33;;;;;;;37.92;22.02;;;;;;;;;;6126939;23;20013;-71
2022/02/04 18:56:13;;;;;;;42.97;20.75;;;;;;;;;;6152663;23;20016;-71
2022/02/04 18:58:40;;;;;;;61.95;25.35;;;;;;;;;;6152973;23;20017;-71
2022/02/04 19:01:06;;;;;;;70.63;29.65;;;;;;;;;;6152910;23;20326;-71
2022/02/04 19:03:40;;;;;;;64.60;30.38;;;;;;;;;;6152395;23;20105;-71
2022/02/04 19:06:21;;;;;;;67.22;31.15;;;;;;;;;;6126643;23;20440;-72
2022/02/04 19:08:53;;;;;;;;;;;;;;;;;;6153860;23;20021;-71
2022/02/04 19:11:24;;;;;;;60.40;28.42;;;;;;;;;;6126575;23;19955;-71
2022/02/04 19:14:06;;;;;;;41.28;21.55;;;;;;;;;;5108208;27;20826;-72
2022/02/04 19:16:43;;;;;;;39.75;20.42;;;;;;;;;;5106351;28;20024;-72
2022/02/04 19:21:44;;;;;;;41.80;23.20;;;;;;;;;;5107992;28;20192;-70
2022/02/04 19:24:12;;;;;;;43.22;25.45;;;;;;;;;;5106615;28;20412;-70
2022/02/04 19:26:38;;;;;;;54.60;31.38;;;;;;;;;;5107757;28;20104;-70
2022/02/04 19:29:05;;;;;;;42.22;26.02;;;;;;;;;;5107948;28;20034;-70
2022/02/04 19:31:33;;;;;;;37.70;21.42;;;;;;;;;;5106286;28;20024;-70
2022/02/04 19:33:58;;;;;;;36.28;20.08;;;;;;;;;;5107874;28;20024;-70
2022/02/04 19:36:24;;;;;;;31.45;18.13;;;;;;;;;;5107433;28;20012;-71
2022/02/04 19:38:49;;;;;;;34.70;18.98;;;;;;;;;;5107616;28;20034;-70
2022/02/04 19:41:19;;;;;;;36.97;20.85;;;;;;;;;;5107263;28;20024;-73
2022/02/04 19:43:49;;;;;;;33.95;19.42;;;;;;;;;;5106814;28;20062;-71
2022/02/04 19:46:18;;;;;;;47.58;26.92;;;;;;;;;;5106750;28;20028;-71
2022/02/04 19:48:49;;;;;;;57.28;28.38;;;;;;;;;;5105490;28;20032;-71
2022/02/04 19:51:25;;;;;;;45.55;26.15;;;;;;;;;;5106757;28;20035;-71
2022/02/04 20:07:47;;;;;;;29.02;16.85;;;;;;;;;;5110373;28;20036;-71
2022/02/04 20:13:53;;;;;;;25.77;15.65;;;;;;;;;;5109516;28;20051;-72
2022/02/04 20:27:01;;;;;;;34.17;20.23;;;;;;;;;;5096354;28;20024;-71
2022/02/04 20:29:26;;;;;;;32.53;18.58;;;;;;;;;;5094983;28;20019;-72
2022/02/04 20:31:52;;;;;;;32.42;19.58;;;;;;;;;;5096215;28;20024;-71
2022/02/04 20:34:17;;;;;;;33.33;21.20;;;;;;;;;;5094802;28;20016;-71
2022/02/04 20:36:45;;;;;;;38.05;21.90;;;;;;;;;;5094783;28;20028;-71
2022/02/04 20:39:14;;;;;;;39.00;22.30;;;;;;;;;;5095878;28;20108;-72
2022/02/04 20:41:40;;;;;;;41.63;23.35;;;;;;;;;;5094846;28;20358;-72
2022/02/04 20:44:05;;;;;;;45.30;24.73;;;;;;;;;;5095749;28;20024;-71
2022/02/04 20:46:31;;;;;;;50.25;26.23;;;;;;;;;;5096143;28;20016;-71
2022/02/04 20:48:56;;;;;;;44.88;23.85;;;;;;;;;;5095952;28;20501;-71
2022/02/04 20:51:22;;;;;;;45.40;25.25;;;;;;;;;;5095848;28;20036;-71
2022/02/04 20:53:52;;;;;;;40.83;22.27;;;;;;;;;;5095797;28;20024;-71
2022/02/04 20:56:18;;;;;;;36.90;21.85;;;;;;;;;;5094748;28;20032;-71
2022/02/04 20:58:43;;;;;;;36.42;20.75;;;;;;;;;;5094547;28;20600;-71
2022/02/04 21:01:12;;;;;;;44.20;24.23;;;;;;;;;;5095540;28;20081;-71
2022/02/04 21:03:39;;;;;;;60.08;29.60;;;;;;;;;;5094482;28;20529;-72
2022/02/04 21:06:16;;;;;;;56.22;28.70;;;;;;;;;;5095595;28;20114;-71
2022/02/04 21:14:28;;;;;;;70.85;32.72;;;;;;;;;;5095699;28;20070;-71
2022/02/04 21:16:57;;;;;;;57.38;26.35;;;;;;;;;;5094602;28;20372;-71
2022/02/04 21:19:22;;;;;;;58.60;28.67;;;;;;;;;;5095299;28;20386;-71
2022/02/04 21:21:49;;;;;;;50.92;24.75;;;;;;;;;;5095155;28;20032;-71
2022/02/04 21:24:14;;;;;;;55.42;26.50;;;;;;;;;;5093852;28;20474;-71
2022/02/04 21:26:40;;;;;;;52.20;26.70;;;;;;;;;;5094553;28;20020;-71
2022/02/04 21:29:06;;;;;;;44.45;21.60;;;;;;;;;;5094666;28;20019;-71
2022/02/04 21:31:33;;;;;;;52.13;24.00;;;;;;;;;;5095115;28;20031;-70
2022/02/04 21:36:54;;;;;;;57.67;29.27;;;;;;;;;;5094995;28;20016;-70